Milton Freewater, Oregon
Current Conditions -  °F | °C
As of 7:53 AM on Thursday 18 Dec 2014 (Local Time) from KALW Reporting Station
Haze Haze  
Wind Chill: 34°   Ceiling: Unl
Heat Index: 34°   Visibility: 6mi
Dew Point: 31°   Wind: 0mph
Humidity: 89%   Direction: NA
Pressure: 30"   Gusts: NA
Location:  45.94°N, 118.39°W
Report Text: KALW 181553Z 00000KT 6SM BR CLR 01/M01 A3000 RMK AO2 SLP168 T00111006
Loading
Personal Weather Stations






























Interactive Weather Map New forecast layout! Learn more

10-Day Weather Forecast

Advertisements
Track Severe Weather on mobile